createdAt,value
2023-03-29T00:01:34.965Z,101278.22
2023-03-29T00:04:38.952Z,101282.62
2023-03-29T00:07:42.524Z,101272.31
2023-03-29T00:10:48.633Z,101275.72
2023-03-29T00:13:51.090Z,101275.66
2023-03-29T00:16:53.625Z,101269.56
2023-03-29T00:19:56.085Z,101271.84
2023-03-29T00:22:58.758Z,101273.38
2023-03-29T00:26:01.139Z,101273.03
2023-03-29T00:29:03.958Z,101271.97
2023-03-29T00:32:06.521Z,101274.16
2023-03-29T00:35:09.329Z,101276.50
2023-03-29T00:38:11.757Z,101282.00
2023-03-29T00:41:14.927Z,101288.44
2023-03-29T00:44:35.797Z,101290.59
2023-03-29T00:47:59.984Z,101291.81
2023-03-29T00:51:09.770Z,101285.88
2023-03-29T00:54:16.160Z,101280.69
2023-03-29T00:57:20.909Z,101291.69
2023-03-29T01:00:27.980Z,101287.38
2023-03-29T01:03:33.984Z,101282.38
2023-03-29T01:06:39.250Z,101273.81
2023-03-29T01:09:43.606Z,101280.53
2023-03-29T01:12:50.064Z,101275.44
2023-03-29T01:15:54.291Z,101272.88
2023-03-29T01:18:58.328Z,101277.06
2023-03-29T01:22:22.619Z,101273.28
2023-03-29T01:25:28.354Z,101266.56
2023-03-29T01:28:36.329Z,101266.03
2023-03-29T01:31:41.775Z,101265.94
2023-03-29T01:34:44.191Z,101266.03
2023-03-29T01:37:56.791Z,101261.00
2023-03-29T01:40:59.174Z,101255.66
2023-03-29T01:44:15.951Z,101263.06
2023-03-29T01:47:38.589Z,101259.00
2023-03-29T01:51:03.786Z,101263.13
2023-03-29T01:54:10.091Z,101261.47
2023-03-29T01:57:14.492Z,101255.72
2023-03-29T02:00:19.229Z,101256.78
2023-03-29T02:03:24.930Z,101261.63
2023-03-29T02:06:31.846Z,101259.94
2023-03-29T02:09:37.234Z,101260.69
2023-03-29T02:12:40.345Z,101264.16
2023-03-29T02:15:44.459Z,101263.50
2023-03-29T02:18:48.855Z,101267.56
2023-03-29T02:22:05.143Z,101259.94
2023-03-29T02:25:09.497Z,101264.37
2023-03-29T02:28:12.822Z,101269.34
2023-03-29T02:31:21.263Z,101261.56
2023-03-29T02:34:24.497Z,101264.06
2023-03-29T02:37:30.380Z,101265.59
2023-03-29T02:40:34.649Z,101268.94
2023-03-29T02:43:40.328Z,101266.97
2023-03-29T02:46:43.986Z,101268.94
2023-03-29T02:49:48.114Z,101272.06
2023-03-29T02:52:56.120Z,101270.19
2023-03-29T02:56:02.249Z,101281.81
2023-03-29T02:59:04.928Z,101278.47
2023-03-29T03:02:07.588Z,101271.69
2023-03-29T03:05:09.974Z,101282.91
2023-03-29T03:08:13.998Z,101282.94
2023-03-29T03:11:16.976Z,101284.22
2023-03-29T03:14:22.850Z,101286.69
2023-03-29T03:17:25.677Z,101288.34
2023-03-29T03:20:28.390Z,101292.56
2023-03-29T03:23:30.973Z,101288.53
2023-03-29T03:26:35.932Z,101285.66
2023-03-29T03:29:39.318Z,101281.44
2023-03-29T03:32:44.743Z,101295.28
2023-03-29T03:36:02.785Z,101287.31
2023-03-29T03:39:07.354Z,101292.94
2023-03-29T03:42:09.691Z,101297.34
2023-03-29T03:45:14.697Z,101296.31
2023-03-29T03:48:20.469Z,101295.16
2023-03-29T03:51:23.387Z,101299.44
2023-03-29T03:54:26.153Z,101298.66
2023-03-29T03:57:30.299Z,101293.38
2023-03-29T04:00:33.361Z,101293.88
2023-03-29T04:03:39.897Z,101288.94
2023-03-29T04:06:44.188Z,101282.28
2023-03-29T04:09:53.025Z,101296.03
2023-03-29T04:12:56.689Z,101298.16
2023-03-29T04:16:01.688Z,101290.41
2023-03-29T04:19:04.648Z,101291.00
2023-03-29T04:22:07.252Z,101294.81
2023-03-29T04:25:10.472Z,101293.91
2023-03-29T04:28:15.521Z,101293.72
2023-03-29T04:31:19.215Z,101294.31
2023-03-29T04:34:23.322Z,101301.72
2023-03-29T04:37:26.130Z,101295.69
2023-03-29T04:40:29.150Z,101299.75
2023-03-29T04:43:31.761Z,101294.81
2023-03-29T04:46:34.691Z,101290.69
2023-03-29T04:49:39.346Z,101289.09
2023-03-29T04:52:45.377Z,101288.28
2023-03-29T04:55:47.922Z,101288.53
2023-03-29T04:58:51.293Z,101296.47
2023-03-29T05:01:54.716Z,101304.56
2023-03-29T05:04:57.543Z,101308.47
2023-03-29T05:08:00.122Z,101320.12
2023-03-29T05:11:03.938Z,101310.38
2023-03-29T05:14:08.673Z,101309.09
2023-03-29T05:17:11.324Z,101308.66
2023-03-29T05:20:13.942Z,101306.56
2023-03-29T05:23:17.535Z,101307.13
2023-03-29T05:26:25.491Z,101300.09
2023-03-29T05:29:32.800Z,101310.00
2023-03-29T05:32:37.270Z,101299.53
2023-03-29T05:35:40.103Z,101304.87
2023-03-29T05:38:46.764Z,101300.94
2023-03-29T05:41:50.066Z,101308.97
2023-03-29T05:44:54.607Z,101309.25
2023-03-29T05:47:57.986Z,101313.03
2023-03-29T05:51:00.574Z,101309.91
2023-03-29T05:54:03.586Z,101320.59
2023-03-29T05:57:06.322Z,101318.28
2023-03-29T06:00:24.252Z,101327.91
2023-03-29T06:03:27.863Z,101325.31
2023-03-29T06:06:31.699Z,101325.37
2023-03-29T06:09:34.533Z,101330.59
2023-03-29T06:12:37.728Z,101328.28
2023-03-29T06:15:41.417Z,101328.50
2023-03-29T06:18:44.905Z,101337.12
2023-03-29T06:21:47.696Z,101329.72
2023-03-29T06:24:51.180Z,101326.56
2023-03-29T06:27:56.929Z,101331.94
2023-03-29T06:31:02.623Z,101335.28
2023-03-29T06:34:07.631Z,101333.66
2023-03-29T06:37:12.946Z,101336.38
2023-03-29T06:40:21.207Z,101349.25
2023-03-29T06:43:23.914Z,101342.31
2023-03-29T06:46:27.520Z,101345.78
2023-03-29T06:49:29.909Z,101350.25
2023-03-29T06:52:32.850Z,101351.16
2023-03-29T06:55:36.100Z,101348.63
2023-03-29T06:58:42.667Z,101346.03
2023-03-29T07:01:47.300Z,101345.16
2023-03-29T07:04:50.252Z,101344.31
2023-03-29T07:07:57.149Z,101348.66
2023-03-29T07:11:01.556Z,101351.22
2023-03-29T07:14:05.770Z,101352.00
2023-03-29T07:17:08.589Z,101362.31
2023-03-29T07:20:14.213Z,101365.00
2023-03-29T07:23:18.123Z,101372.75
2023-03-29T07:26:28.920Z,101368.47
2023-03-29T07:29:32.969Z,101371.06
2023-03-29T07:32:36.363Z,101379.69
2023-03-29T07:35:43.398Z,101373.59
2023-03-29T07:38:45.899Z,101373.47
2023-03-29T07:41:49.413Z,101393.72
2023-03-29T07:44:56.272Z,101380.94
2023-03-29T07:47:59.547Z,101377.56
2023-03-29T07:51:02.656Z,101387.78
2023-03-29T07:54:06.715Z,101380.84
2023-03-29T07:57:11.661Z,101384.84
2023-03-29T08:00:19.632Z,101378.63
2023-03-29T08:03:23.649Z,101385.56
2023-03-29T08:06:27.490Z,101382.28
2023-03-29T08:09:30.373Z,101384.94
2023-03-29T08:12:32.760Z,101383.44
2023-03-29T08:15:37.846Z,101378.59
2023-03-29T08:18:41.385Z,101376.66
2023-03-29T08:21:44.350Z,101384.12
2023-03-29T08:24:47.143Z,101372.22
2023-03-29T08:27:50.379Z,101380.13
2023-03-29T08:30:53.778Z,101378.81
2023-03-29T08:33:57.311Z,101380.84
2023-03-29T08:37:02.161Z,101366.50
2023-03-29T08:40:05.703Z,101373.06
2023-03-29T08:43:09.800Z,101361.81
2023-03-29T08:46:35.306Z,101362.87
2023-03-29T08:49:42.608Z,101365.37
2023-03-29T08:52:48.464Z,101367.19
2023-03-29T08:55:53.445Z,101359.53
2023-03-29T08:58:57.554Z,101367.94
2023-03-29T09:02:02.341Z,101357.31
2023-03-29T09:05:18.266Z,101355.81
2023-03-29T09:08:21.914Z,101354.19
2023-03-29T09:11:24.904Z,101341.06
2023-03-29T09:14:33.496Z,101348.66
2023-03-29T09:17:36.108Z,101337.91
2023-03-29T09:20:47.856Z,101333.34
2023-03-29T09:23:52.574Z,101328.44
2023-03-29T09:27:19.160Z,101324.72
2023-03-29T09:30:29.058Z,101325.69
2023-03-29T09:33:37.324Z,101323.16
2023-03-29T09:36:52.532Z,101317.00
2023-03-29T09:39:56.844Z,101315.03
2023-03-29T09:43:02.252Z,101313.75
2023-03-29T09:46:07.066Z,101316.28
2023-03-29T09:49:12.587Z,101307.47
2023-03-29T09:52:16.906Z,101305.13
2023-03-29T09:55:22.381Z,101301.56
2023-03-29T09:58:27.565Z,101296.28
2023-03-29T10:01:38.573Z,101295.00
2023-03-29T10:04:42.930Z,101294.66
2023-03-29T10:07:47.184Z,101280.00
2023-03-29T10:10:49.965Z,101280.56
2023-03-29T10:13:55.041Z,101275.50
2023-03-29T10:16:57.810Z,101277.59
2023-03-29T10:20:04.387Z,101279.84
2023-03-29T10:23:08.342Z,101267.09
2023-03-29T10:26:16.722Z,101263.25
2023-03-29T10:29:19.591Z,101258.06
2023-03-29T10:32:22.856Z,101258.16
2023-03-29T10:35:29.607Z,101256.19
2023-03-29T10:38:32.180Z,101260.09
2023-03-29T10:41:35.587Z,101243.53
2023-03-29T10:44:38.668Z,101239.63
2023-03-29T10:47:44.748Z,101244.88
2023-03-29T10:50:53.020Z,101246.69
2023-03-29T10:53:59.269Z,101231.75
2023-03-29T10:57:05.226Z,101231.81
2023-03-29T11:00:20.400Z,101233.41
2023-03-29T11:03:32.312Z,101226.87
2023-03-29T11:06:41.078Z,101222.06
2023-03-29T11:10:07.196Z,101209.44
2023-03-29T11:13:18.617Z,101216.84
2023-03-29T11:16:32.921Z,101215.78
2023-03-29T11:19:44.470Z,101211.28
2023-03-29T11:22:53.384Z,101202.81
2023-03-29T11:25:59.127Z,101204.44
2023-03-29T11:29:16.110Z,101209.44
2023-03-29T11:32:28.530Z,101213.81
2023-03-29T11:35:49.058Z,101201.84
2023-03-29T11:39:04.280Z,101195.94
2023-03-29T11:42:09.485Z,101194.94
2023-03-29T11:45:28.621Z,101191.31
2023-03-29T11:48:38.506Z,101177.88
2023-03-29T11:51:44.077Z,101173.97
2023-03-29T11:54:49.250Z,101167.34
2023-03-29T11:58:04.883Z,101173.13
2023-03-29T12:01:10.261Z,101167.81
2023-03-29T12:04:22.484Z,101168.38
2023-03-29T12:07:32.229Z,101168.84
2023-03-29T12:10:37.859Z,101162.06
2023-03-29T12:13:44.522Z,101161.97
2023-03-29T12:16:49.570Z,101159.16
2023-03-29T12:20:02.415Z,101151.31
2023-03-29T12:23:10.922Z,101143.75
2023-03-29T12:26:17.177Z,101147.31
2023-03-29T12:29:32.221Z,101151.34
2023-03-29T12:32:37.814Z,101145.22
2023-03-29T12:36:00.416Z,101128.66
2023-03-29T12:39:16.009Z,101131.97
2023-03-29T12:42:21.710Z,101128.37
2023-03-29T12:45:34.982Z,101121.94
2023-03-29T12:48:38.685Z,101127.16
2023-03-29T12:51:41.864Z,101129.69
2023-03-29T12:54:52.383Z,101114.56
2023-03-29T12:58:02.495Z,101124.53
2023-03-29T13:01:06.111Z,101119.00
2023-03-29T13:04:22.448Z,101127.00
2023-03-29T13:07:27.926Z,101117.53
2023-03-29T13:10:35.518Z,101119.25
2023-03-29T13:13:39.514Z,101118.63
2023-03-29T13:16:42.855Z,101110.97
2023-03-29T13:19:45.825Z,101101.72
2023-03-29T13:22:48.129Z,101099.75
2023-03-29T13:25:50.839Z,101092.75
2023-03-29T13:28:53.141Z,101095.63
2023-03-29T13:31:59.556Z,101087.87
2023-03-29T13:35:11.628Z,101084.31
2023-03-29T13:38:33.260Z,101084.94
2023-03-29T13:41:38.615Z,101074.34
2023-03-29T13:44:46.099Z,101079.00
2023-03-29T13:47:58.782Z,101078.66
2023-03-29T13:51:20.625Z,101072.59
2023-03-29T13:54:23.182Z,101065.47
2023-03-29T13:57:32.663Z,101064.41
2023-03-29T14:00:40.070Z,101059.25
2023-03-29T14:03:46.925Z,101059.75
2023-03-29T14:06:51.768Z,101058.53
2023-03-29T14:09:55.627Z,101060.87
2023-03-29T14:13:02.677Z,101061.78
2023-03-29T14:16:09.074Z,101060.63
2023-03-29T14:19:19.203Z,101056.22
2023-03-29T14:22:21.992Z,101048.78
2023-03-29T14:25:24.388Z,101036.75
2023-03-29T14:28:28.528Z,101047.16
2023-03-29T14:31:35.819Z,101045.84
2023-03-29T14:34:39.506Z,101035.41
2023-03-29T14:37:42.244Z,101030.06
2023-03-29T14:40:45.217Z,101028.09
2023-03-29T14:43:47.640Z,101040.44
2023-03-29T14:46:50.439Z,101042.88
2023-03-29T14:49:54.477Z,101029.00
2023-03-29T14:52:58.484Z,101034.16
2023-03-29T14:56:02.213Z,101023.81
2023-03-29T14:59:05.102Z,101027.66
2023-03-29T15:02:22.476Z,101024.25
2023-03-29T15:05:34.035Z,101026.91
2023-03-29T15:08:38.107Z,101027.97
2023-03-29T15:11:40.809Z,101029.53
2023-03-29T15:14:43.209Z,101023.84
2023-03-29T15:17:51.216Z,101022.38
2023-03-29T15:20:55.084Z,101016.87
2023-03-29T15:23:58.770Z,101011.66
2023-03-29T15:27:03.511Z,101015.75
2023-03-29T15:30:14.857Z,101017.44
2023-03-29T15:33:21.350Z,101014.28
2023-03-29T15:36:24.132Z,101014.69
2023-03-29T15:39:27.843Z,101013.16
2023-03-29T15:42:31.485Z,101014.38
2023-03-29T15:45:33.815Z,100993.34
2023-03-29T15:48:36.677Z,100999.34
2023-03-29T15:51:39.267Z,100993.97
2023-03-29T15:54:42.472Z,100994.59
2023-03-29T15:57:46.643Z,100990.25
2023-03-29T16:00:53.882Z,100992.09
2023-03-29T16:03:57.849Z,100988.19
2023-03-29T16:07:01.227Z,100981.72
2023-03-29T16:10:06.021Z,100986.91
2023-03-29T16:13:10.565Z,100983.66
2023-03-29T16:16:13.274Z,100981.12
2023-03-29T16:19:15.877Z,100983.91
2023-03-29T16:22:18.530Z,100974.50
2023-03-29T16:25:22.835Z,100965.03
2023-03-29T16:28:25.466Z,100970.16
2023-03-29T16:31:31.027Z,100974.28
2023-03-29T16:34:33.825Z,100961.44
2023-03-29T16:37:36.124Z,100958.13
2023-03-29T16:40:38.959Z,100970.19
2023-03-29T16:43:41.357Z,100967.91
2023-03-29T16:46:44.614Z,100975.09
2023-03-29T16:49:48.652Z,100965.03
2023-03-29T16:52:54.090Z,100966.88
2023-03-29T16:55:57.426Z,100963.69
2023-03-29T16:59:00.127Z,100972.41
2023-03-29T17:02:02.710Z,100963.84
2023-03-29T17:05:06.109Z,100971.88
2023-03-29T17:08:10.216Z,100966.81
2023-03-29T17:11:13.121Z,100971.12
2023-03-29T17:14:15.705Z,100962.59
2023-03-29T17:17:18.680Z,100964.41
2023-03-29T17:20:21.088Z,100955.81
2023-03-29T17:23:24.378Z,100963.75
2023-03-29T17:26:26.771Z,100962.97
2023-03-29T17:29:29.766Z,100967.25
2023-03-29T17:32:32.394Z,100968.00
2023-03-29T17:35:35.085Z,100965.44
2023-03-29T17:38:38.063Z,100972.34
2023-03-29T17:41:40.950Z,100983.63
2023-03-29T17:44:43.557Z,100979.34
2023-03-29T17:47:46.362Z,100980.16
2023-03-29T17:50:48.707Z,100981.97
2023-03-29T17:53:52.476Z,100980.28
2023-03-29T17:56:54.808Z,100983.69
2023-03-29T17:59:57.442Z,100988.78
2023-03-29T18:03:00.794Z,100983.66
2023-03-29T18:06:04.279Z,100983.78
2023-03-29T18:09:07.103Z,100986.41
2023-03-29T18:12:09.849Z,100992.56
2023-03-29T18:15:12.192Z,100996.09
2023-03-29T18:18:14.892Z,100992.59
2023-03-29T18:21:17.952Z,100995.25
2023-03-29T18:24:20.647Z,101000.50
2023-03-29T18:27:23.088Z,101001.28
2023-03-29T18:30:25.670Z,101012.56
2023-03-29T18:33:30.247Z,101010.06
2023-03-29T18:36:32.882Z,101015.19
2023-03-29T18:39:35.753Z,101008.34
2023-03-29T18:42:38.477Z,101010.06
2023-03-29T18:45:40.847Z,101020.56
2023-03-29T18:48:43.510Z,101017.91
2023-03-29T18:51:47.621Z,101011.16
2023-03-29T18:54:50.491Z,101006.91
2023-03-29T18:57:52.859Z,101009.50
2023-03-29T19:00:59.775Z,101013.00
2023-03-29T19:04:02.178Z,101010.31
2023-03-29T19:07:04.799Z,101010.47
2023-03-29T19:10:08.386Z,101010.47
2023-03-29T19:13:11.120Z,101011.31
2023-03-29T19:16:13.634Z,101011.25
2023-03-29T19:19:16.481Z,101006.13
2023-03-29T19:22:19.098Z,101020.88
2023-03-29T19:25:21.793Z,101023.44
2023-03-29T19:28:24.418Z,101021.75
2023-03-29T19:31:27.529Z,101024.31
2023-03-29T19:34:30.521Z,101022.56
2023-03-29T19:37:33.190Z,101024.28
2023-03-29T19:40:36.520Z,101026.06
2023-03-29T19:43:39.109Z,101022.59
2023-03-29T19:46:41.938Z,101027.88
2023-03-29T19:49:46.530Z,101025.31
2023-03-29T19:52:49.100Z,101027.88
2023-03-29T19:55:52.466Z,101017.50
2023-03-29T19:58:54.988Z,101017.50
2023-03-29T20:01:57.647Z,101014.13
2023-03-29T20:05:01.641Z,101015.78
2023-03-29T20:08:04.283Z,101012.38
2023-03-29T20:11:10.365Z,101014.16
2023-03-29T20:14:13.238Z,101005.56
2023-03-29T20:17:15.970Z,101014.16
2023-03-29T20:20:18.537Z,101005.44
2023-03-29T20:23:21.255Z,100993.25
2023-03-29T20:26:24.254Z,101003.78
2023-03-29T20:29:28.285Z,100997.69
2023-03-29T20:32:31.737Z,101002.13
2023-03-29T20:35:34.701Z,100995.28
2023-03-29T20:38:37.144Z,100993.53
2023-03-29T20:41:40.267Z,100993.56
2023-03-29T20:44:50.591Z,100994.47
2023-03-29T20:47:57.913Z,100985.84
2023-03-29T20:51:03.008Z,100980.66
2023-03-29T20:54:06.083Z,100976.34
2023-03-29T20:57:10.095Z,100985.84
2023-03-29T21:00:12.960Z,100984.06
2023-03-29T21:03:15.379Z,100990.16
2023-03-29T21:06:19.290Z,100978.12
2023-03-29T21:09:22.273Z,100978.06
2023-03-29T21:12:25.564Z,100978.12
2023-03-29T21:15:34.413Z,100979.81
2023-03-29T21:18:38.728Z,100977.16
2023-03-29T21:21:41.530Z,100968.56
2023-03-29T21:24:44.371Z,100977.16
2023-03-29T21:27:46.847Z,100972.00
2023-03-29T21:30:49.948Z,100973.66
2023-03-29T21:33:54.744Z,100976.22
2023-03-29T21:36:57.259Z,100973.56
2023-03-29T21:39:59.624Z,100977.03
2023-03-29T21:43:02.206Z,100976.13
2023-03-29T21:46:04.905Z,100968.41
2023-03-29T21:49:07.813Z,100975.34
2023-03-29T21:52:10.894Z,100971.06
2023-03-29T21:55:13.601Z,100965.94
2023-03-29T21:58:16.311Z,100971.16
2023-03-29T22:01:19.000Z,100966.03
2023-03-29T22:04:33.582Z,100968.66
2023-03-29T22:07:41.503Z,100970.38
2023-03-29T22:10:44.135Z,100969.47
2023-03-29T22:13:46.692Z,100972.13
2023-03-29T22:16:49.480Z,100971.22
2023-03-29T22:19:52.339Z,100966.03
2023-03-29T22:22:55.680Z,100977.34
2023-03-29T22:25:57.992Z,100970.47
2023-03-29T22:29:00.854Z,100964.44
2023-03-29T22:32:03.565Z,100970.47
2023-03-29T22:35:06.508Z,100968.81
2023-03-29T22:38:08.850Z,100962.84
2023-03-29T22:41:12.229Z,100965.41
2023-03-29T22:44:14.519Z,100969.81
2023-03-29T22:47:17.619Z,100978.47
2023-03-29T22:50:19.932Z,100974.12
2023-03-29T22:53:22.525Z,100987.09
2023-03-29T22:56:24.913Z,100977.62
2023-03-29T22:59:27.665Z,100976.81
2023-03-29T23:02:30.001Z,100974.22
2023-03-29T23:05:32.935Z,100982.03
2023-03-29T23:08:35.363Z,100974.28
2023-03-29T23:11:37.962Z,100972.63
2023-03-29T23:14:42.762Z,100983.91
2023-03-29T23:17:45.457Z,100981.31
2023-03-29T23:20:48.521Z,100981.38
2023-03-29T23:23:51.183Z,100978.81
2023-03-29T23:26:55.260Z,100984.88
2023-03-29T23:29:59.570Z,100978.91
2023-03-29T23:33:02.540Z,100976.28
2023-03-29T23:36:08.952Z,100976.19
2023-03-29T23:39:11.533Z,100976.28
2023-03-29T23:42:14.229Z,100970.28
2023-03-29T23:45:20.735Z,100970.25
2023-03-29T23:48:24.011Z,100977.94
2023-03-29T23:51:28.420Z,100970.25
2023-03-29T23:54:34.436Z,100977.19
2023-03-29T23:57:37.190Z,100967.72
